createdAt,value
2023-01-26T00:03:41.279Z,5.37
2023-01-26T00:08:49.382Z,5.18
2023-01-26T00:13:52.250Z,6.10
2023-01-26T00:18:55.332Z,5.38
2023-01-26T00:23:58.725Z,3.53
2023-01-26T00:29:01.836Z,5.17
2023-01-26T00:34:04.668Z,5.65
2023-01-26T00:39:07.335Z,4.77
2023-01-26T00:44:10.966Z,4.60
2023-01-26T00:49:13.727Z,3.80
2023-01-26T00:54:16.496Z,2.80
2023-01-26T00:59:19.306Z,4.05
2023-01-26T01:04:22.093Z,3.57
2023-01-26T01:09:25.458Z,4.38
2023-01-26T01:14:28.178Z,4.93
2023-01-26T01:19:31.030Z,5.50
2023-01-26T01:24:35.613Z,4.32
2023-01-26T01:29:38.468Z,4.47
2023-01-26T01:34:41.349Z,4.25
2023-01-26T01:39:44.204Z,5.60
2023-01-26T01:45:07.579Z,4.20
2023-01-26T01:50:15.746Z,4.65
2023-01-26T01:55:18.679Z,4.60
2023-01-26T02:00:24.145Z,3.30
2023-01-26T02:05:32.705Z,5.38
2023-01-26T02:10:36.498Z,4.70
2023-01-26T02:15:40.442Z,5.50
2023-01-26T02:20:52.547Z,4.63
2023-01-26T02:25:57.447Z,5.53
2023-01-26T02:31:01.020Z,5.00
2023-01-26T02:36:05.559Z,6.23
2023-01-26T02:41:12.878Z,5.32
2023-01-26T02:46:15.841Z,5.93
2023-01-26T02:51:19.106Z,6.55
2023-01-26T02:56:23.690Z,3.30
2023-01-26T03:01:26.858Z,5.90
2023-01-26T03:06:29.702Z,5.90
2023-01-26T03:11:42.420Z,5.47
2023-01-26T03:16:45.503Z,5.15
2023-01-26T03:22:06.558Z,5.25
2023-01-26T03:27:28.965Z,5.23
2023-01-26T03:32:37.642Z,4.28
2023-01-26T03:37:44.098Z,3.80
2023-01-26T03:43:12.351Z,5.07
2023-01-26T03:48:34.281Z,5.78
2023-01-26T03:53:57.397Z,5.87
2023-01-26T03:59:13.154Z,5.85
2023-01-26T04:04:35.341Z,5.03
2023-01-26T04:09:42.197Z,4.80
2023-01-26T04:15:03.426Z,5.05
2023-01-26T04:20:26.889Z,4.10
2023-01-26T04:25:29.756Z,4.68
2023-01-26T04:30:33.822Z,5.80
2023-01-26T04:35:38.216Z,5.97
2023-01-26T04:40:41.241Z,5.00
2023-01-26T04:45:45.362Z,6.00
2023-01-26T04:50:57.238Z,6.53
2023-01-26T04:56:01.312Z,6.03
2023-01-26T05:01:05.481Z,5.40
2023-01-26T05:06:09.068Z,6.28
2023-01-26T05:11:12.199Z,6.27
2023-01-26T05:16:36.961Z,5.80
2023-01-26T05:22:02.242Z,6.77
2023-01-26T05:27:21.445Z,6.65
2023-01-26T05:32:31.430Z,5.15
2023-01-26T05:37:34.657Z,5.97
2023-01-26T05:42:37.454Z,5.28
2023-01-26T05:47:50.194Z,6.13
2023-01-26T05:52:53.103Z,5.55
2023-01-26T05:57:56.227Z,5.60
2023-01-26T06:02:59.261Z,4.83
2023-01-26T06:08:02.041Z,5.50
2023-01-26T06:13:12.659Z,6.47
2023-01-26T06:18:27.585Z,6.15
2023-01-26T06:23:32.345Z,5.72
2023-01-26T06:28:37.680Z,5.40
2023-01-26T06:33:40.624Z,5.30
2023-01-26T06:38:49.568Z,5.93
2023-01-26T06:43:53.117Z,5.63
2023-01-26T06:48:56.261Z,6.28
2023-01-26T06:53:59.486Z,7.03
2023-01-26T06:59:11.041Z,6.63
2023-01-26T07:04:50.701Z,6.10
2023-01-26T07:09:54.014Z,6.07
2023-01-26T07:14:56.637Z,6.43
2023-01-26T07:19:59.467Z,5.17
2023-01-26T07:25:02.297Z,6.22
2023-01-26T07:30:05.704Z,5.67
2023-01-26T07:35:09.137Z,5.88
2023-01-26T07:40:12.718Z,6.15
2023-01-26T07:45:18.023Z,6.67
2023-01-26T07:50:21.835Z,6.45
2023-01-26T07:55:26.595Z,4.23
2023-01-26T08:00:29.513Z,4.82
2023-01-26T08:05:33.031Z,6.85
2023-01-26T08:10:36.126Z,6.60
2023-01-26T08:15:38.942Z,7.03
2023-01-26T08:20:41.791Z,8.53
2023-01-26T08:25:44.593Z,5.10
2023-01-26T08:30:47.641Z,6.32
2023-01-26T08:35:50.588Z,6.93
2023-01-26T08:40:54.788Z,9.00
2023-01-26T08:45:58.188Z,7.93
2023-01-26T08:51:03.088Z,8.45
2023-01-26T08:56:08.262Z,6.10
2023-01-26T09:01:16.953Z,5.50
2023-01-26T09:06:20.349Z,4.95
2023-01-26T09:11:23.238Z,6.57
2023-01-26T09:16:26.098Z,7.53
2023-01-26T09:21:29.447Z,6.55
2023-01-26T09:26:32.463Z,4.90
2023-01-26T09:31:35.319Z,4.72
2023-01-26T09:36:40.590Z,7.50
2023-01-26T09:41:50.346Z,3.03
2023-01-26T09:47:15.930Z,4.60
2023-01-26T09:52:28.503Z,5.43
2023-01-26T09:57:50.673Z,5.53
2023-01-26T10:02:53.420Z,6.70
2023-01-26T10:07:56.797Z,6.13
2023-01-26T10:13:00.460Z,7.00
2023-01-26T10:18:07.407Z,6.27
2023-01-26T10:23:22.145Z,7.93
2023-01-26T10:28:30.687Z,6.93
2023-01-26T10:33:36.186Z,6.47
2023-01-26T10:38:41.961Z,4.32
2023-01-26T10:43:53.341Z,4.27
2023-01-26T10:48:59.806Z,5.65
2023-01-26T10:54:23.245Z,6.20
2023-01-26T10:59:39.596Z,6.13
2023-01-26T11:05:01.610Z,2.55
2023-01-26T11:10:27.604Z,5.10
2023-01-26T11:15:31.037Z,5.18
2023-01-26T11:20:59.422Z,7.03
2023-01-26T11:26:31.216Z,7.45
2023-01-26T11:32:26.921Z,12.80
2023-01-26T11:37:46.650Z,6.50
2023-01-26T11:43:12.526Z,5.55
2023-01-26T11:48:50.645Z,5.07
2023-01-26T11:54:25.680Z,5.97
2023-01-26T11:59:39.322Z,7.45
2023-01-26T12:04:47.168Z,5.83
2023-01-26T12:09:53.165Z,7.10
2023-01-26T12:15:14.315Z,5.93
2023-01-26T12:20:35.055Z,7.90
2023-01-26T12:26:03.976Z,6.40
2023-01-26T12:31:22.575Z,5.97
2023-01-26T12:36:43.996Z,6.25
2023-01-26T12:42:07.048Z,6.73
2023-01-26T12:47:25.130Z,6.50
2023-01-26T12:52:43.446Z,5.72
2023-01-26T12:58:02.148Z,5.37
2023-01-26T13:03:19.043Z,4.65
2023-01-26T13:08:30.924Z,4.70
2023-01-26T13:13:52.199Z,6.93
2023-01-26T13:18:56.837Z,7.68
2023-01-26T13:23:59.618Z,6.23
2023-01-26T13:29:36.455Z,7.78
2023-01-26T13:34:46.800Z,17.33
2023-01-26T13:39:57.318Z,7.72
2023-01-26T13:45:04.696Z,8.73
2023-01-26T13:50:30.244Z,8.73
2023-01-26T13:55:34.420Z,5.18
2023-01-26T14:00:38.080Z,9.30
2023-01-26T14:05:41.079Z,9.13
2023-01-26T14:10:44.258Z,7.50
2023-01-26T14:15:57.765Z,14.77
2023-01-26T14:21:14.702Z,8.65
2023-01-26T14:26:30.439Z,6.80
2023-01-26T14:31:33.418Z,9.90
2023-01-26T14:36:39.589Z,15.68
2023-01-26T14:41:42.784Z,6.90
2023-01-26T14:47:03.546Z,9.30
2023-01-26T14:52:06.357Z,6.17
2023-01-26T14:57:11.943Z,9.07
2023-01-26T15:02:23.149Z,9.80
2023-01-26T15:07:45.519Z,5.90
2023-01-26T15:12:55.799Z,8.32
2023-01-26T15:18:13.789Z,9.07
2023-01-26T15:23:27.398Z,7.75
2023-01-26T15:28:30.237Z,8.77
2023-01-26T15:33:54.204Z,11.47
2023-01-26T15:39:11.217Z,6.53
2023-01-26T15:44:19.317Z,11.37
2023-01-26T15:49:23.308Z,7.60
2023-01-26T15:54:26.197Z,8.63
2023-01-26T15:59:28.960Z,9.10
2023-01-26T16:04:31.758Z,9.10
2023-01-26T16:09:34.817Z,7.37
2023-01-26T16:14:37.606Z,6.55
2023-01-26T16:19:40.692Z,6.78
2023-01-26T16:24:43.588Z,7.87
2023-01-26T16:29:46.490Z,10.02
2023-01-26T16:34:49.562Z,9.77
2023-01-26T16:39:52.481Z,8.48
2023-01-26T16:44:55.621Z,7.70
2023-01-26T16:49:59.057Z,11.90
2023-01-26T16:55:02.066Z,7.90
2023-01-26T17:00:08.136Z,9.83
2023-01-26T17:05:19.777Z,11.73
2023-01-26T17:10:25.365Z,9.82
2023-01-26T17:15:31.563Z,12.30
2023-01-26T17:20:34.464Z,11.90
2023-01-26T17:25:37.398Z,8.53
2023-01-26T17:30:40.235Z,10.65
2023-01-26T17:35:43.228Z,10.05
2023-01-26T17:40:54.228Z,10.73
2023-01-26T17:46:07.775Z,13.75
2023-01-26T17:51:19.239Z,11.83
2023-01-26T17:56:22.691Z,10.57
2023-01-26T18:01:27.248Z,8.32
2023-01-26T18:06:30.733Z,10.17
2023-01-26T18:11:33.848Z,9.75
2023-01-26T18:16:36.864Z,9.57
2023-01-26T18:21:39.830Z,9.07
2023-01-26T18:26:42.769Z,9.50
2023-01-26T18:31:46.004Z,9.77
2023-01-26T18:36:48.938Z,9.32
2023-01-26T18:41:51.827Z,8.77
2023-01-26T18:46:54.728Z,11.32
2023-01-26T18:51:58.427Z,9.95
2023-01-26T18:57:01.578Z,11.17
2023-01-26T19:02:04.870Z,12.55
2023-01-26T19:07:10.054Z,8.00
2023-01-26T19:12:13.007Z,10.80
2023-01-26T19:17:15.901Z,13.13
2023-01-26T19:22:18.788Z,12.17
2023-01-26T19:27:21.998Z,12.43
2023-01-26T19:32:25.065Z,8.80
2023-01-26T19:37:27.813Z,12.75
2023-01-26T19:42:30.546Z,7.65
2023-01-26T19:47:33.266Z,10.40
2023-01-26T19:52:36.327Z,10.48
2023-01-26T19:57:39.448Z,13.80
2023-01-26T20:02:42.682Z,12.55
2023-01-26T20:07:46.398Z,15.48
2023-01-26T20:12:49.511Z,15.37
2023-01-26T20:17:52.391Z,15.43
2023-01-26T20:22:55.413Z,10.57
2023-01-26T20:27:58.544Z,9.75
2023-01-26T20:33:02.518Z,10.77
2023-01-26T20:38:05.522Z,9.27
2023-01-26T20:43:08.577Z,7.70
2023-01-26T20:48:12.093Z,10.17
2023-01-26T20:53:15.620Z,12.50
2023-01-26T20:58:18.731Z,10.35
2023-01-26T21:03:21.725Z,9.77
2023-01-26T21:08:24.907Z,13.77
2023-01-26T21:13:28.308Z,11.50
2023-01-26T21:18:31.586Z,9.48
2023-01-26T21:23:35.464Z,13.45
2023-01-26T21:28:38.652Z,7.03
2023-01-26T21:33:48.209Z,13.27
2023-01-26T21:38:52.674Z,12.50
2023-01-26T21:44:00.258Z,12.02
2023-01-26T21:49:04.120Z,12.25
2023-01-26T21:54:07.534Z,12.67
2023-01-26T21:59:14.865Z,12.93
2023-01-26T22:04:22.473Z,12.40
2023-01-26T22:09:25.438Z,11.90
2023-01-26T22:14:28.161Z,11.43
2023-01-26T22:19:30.945Z,10.43
2023-01-26T22:24:34.069Z,10.27
2023-01-26T22:29:36.933Z,9.57
2023-01-26T22:34:39.615Z,10.43
2023-01-26T22:39:43.401Z,9.40
2023-01-26T22:44:46.081Z,11.37
2023-01-26T22:49:48.920Z,10.80
2023-01-26T22:54:51.953Z,9.27
2023-01-26T22:59:54.671Z,9.90
2023-01-26T23:04:57.487Z,9.68
2023-01-26T23:10:00.569Z,9.57
2023-01-26T23:15:03.732Z,9.57
2023-01-26T23:20:07.185Z,9.97
2023-01-26T23:25:28.726Z,11.40
2023-01-26T23:30:31.651Z,10.13
2023-01-26T23:35:34.355Z,9.77
2023-01-26T23:40:38.045Z,11.18
2023-01-26T23:45:41.061Z,11.37
2023-01-26T23:50:43.850Z,10.02
2023-01-26T23:55:47.484Z,8.10
